KBLF/BLF METAR and TAF weather

Enter ICAO airport designator
Station Type Date Time Source
KBLF METAR 2020/11/27 14:55 UTC NOAA

KBLF 271455Z AUTO 28004KT 1 1/2SM BR OVC002 05/05 A3015 RMK AO2 VIS 1/2V5 T00500050


Station Type Date Time Source
KBLF Decoded METAR 2020/11/27 14:55 UTC NOAA

BLUEFIELD MERCER COUNTY AIRPORT , WV, United States (KBLF) 37-18N 081-12W 873M
Nov 27, 2020 - 09:55 AM EST / 2020.11.27 1455 UTC
Wind: from the W (280 degrees) at 5 MPH (4 KT):0
Visibility: 1 1/2 mile(s):0
Sky conditions: overcast
Weather: mist
Temperature: 41.0 F (5.0 C)
Dew Point: 41.0 F (5.0 C)
Relative Humidity: 100%
Pressure (altimeter): 30.15 in. Hg (1020 hPa)
ob: KBLF 271455Z AUTO 28004KT 1 1/2SM BR OVC002 05/05 A3015 RMK AO2 VIS 1/2V5 T00500050
cycle: 15

Station Type Date Time Source
KBLF TAF 2020/11/27 15:57 UTC NOAA

TAF
AMD KBLF 271454Z 2715/2812 28005KT P6SM BKN010
TEMPO 2715/2716 6SM BR BKN002
FM271600 28006KT P6SM BKN015
FM271800 28006KT P6SM SCT035

Example: see airport list